createdAt,value
2022-12-26T00:05:18.891Z,10.67
2022-12-26T00:11:07.244Z,10.69
2022-12-26T00:16:53.963Z,10.68
2022-12-26T00:22:40.579Z,10.73
2022-12-26T00:28:27.196Z,10.72
2022-12-26T00:34:13.773Z,10.71
2022-12-26T00:40:00.471Z,10.75
2022-12-26T00:45:50.112Z,10.94
2022-12-26T00:51:37.072Z,10.94
2022-12-26T00:57:23.783Z,10.80
2022-12-26T01:03:14.882Z,10.86
2022-12-26T01:09:15.971Z,10.82
2022-12-26T01:15:02.810Z,10.80
2022-12-26T01:20:49.983Z,10.87
2022-12-26T01:26:37.044Z,10.92
2022-12-26T01:32:24.394Z,10.94
2022-12-26T01:38:11.551Z,10.89
2022-12-26T01:44:01.011Z,10.99
2022-12-26T01:49:53.609Z,11.02
2022-12-26T01:55:40.579Z,11.07
2022-12-26T02:01:39.288Z,11.00
2022-12-26T02:07:26.573Z,10.98
2022-12-26T02:13:13.879Z,10.92
2022-12-26T02:19:00.792Z,10.94
2022-12-26T02:25:18.303Z,10.90
2022-12-26T02:31:45.764Z,10.89
2022-12-26T02:37:47.736Z,11.06
2022-12-26T02:43:45.195Z,11.10
2022-12-26T02:50:23.100Z,11.17
2022-12-26T02:56:54.445Z,11.24
2022-12-26T03:03:06.231Z,11.41
2022-12-26T03:09:23.731Z,11.40
2022-12-26T03:15:15.586Z,11.36
2022-12-26T03:21:05.103Z,11.39
2022-12-26T03:26:55.171Z,11.40
2022-12-26T03:32:43.555Z,11.50
2022-12-26T03:38:56.097Z,11.44
2022-12-26T03:45:17.820Z,11.31
2022-12-26T03:51:34.057Z,11.00
2022-12-26T03:57:42.695Z,10.83
2022-12-26T04:03:53.489Z,10.82
2022-12-26T04:10:04.507Z,10.80
2022-12-26T04:16:18.674Z,10.46
2022-12-26T04:22:47.979Z,10.15
2022-12-26T04:28:53.470Z,10.05
2022-12-26T04:35:06.711Z,10.34
2022-12-26T04:41:16.892Z,10.23
2022-12-26T04:47:03.639Z,10.13
2022-12-26T04:52:58.776Z,9.97
2022-12-26T04:58:45.671Z,10.17
2022-12-26T05:04:50.907Z,10.14
2022-12-26T05:10:38.061Z,10.20
2022-12-26T05:16:44.812Z,10.22
2022-12-26T05:22:52.187Z,10.15
2022-12-26T05:28:41.709Z,9.73
2022-12-26T05:34:28.309Z,9.83
2022-12-26T05:40:15.674Z,8.95
2022-12-26T05:46:04.254Z,8.31
2022-12-26T05:51:53.927Z,8.14
2022-12-26T05:57:40.552Z,8.24
2022-12-26T06:03:29.841Z,8.50
2022-12-26T06:09:16.657Z,8.42
2022-12-26T06:15:03.666Z,8.31
2022-12-26T06:20:51.079Z,8.35
2022-12-26T06:26:37.937Z,8.34
2022-12-26T06:32:24.600Z,8.27
2022-12-26T06:38:13.696Z,7.94
2022-12-26T06:44:00.643Z,7.67
2022-12-26T06:49:47.508Z,7.67
2022-12-26T06:55:34.139Z,7.48
2022-12-26T07:01:24.966Z,7.47
2022-12-26T07:07:13.619Z,7.22
2022-12-26T07:13:00.338Z,7.20
2022-12-26T07:18:47.254Z,7.10
2022-12-26T07:24:33.936Z,7.00
2022-12-26T07:30:23.622Z,7.23
2022-12-26T07:36:12.787Z,7.35
2022-12-26T07:42:02.226Z,7.06
2022-12-26T07:47:48.915Z,7.04
2022-12-26T07:53:35.866Z,7.00
2022-12-26T07:59:23.328Z,7.20
2022-12-26T08:05:09.998Z,7.13
2022-12-26T08:11:08.357Z,7.23
2022-12-26T08:16:55.911Z,7.10
2022-12-26T08:22:42.655Z,7.09
2022-12-26T08:28:29.835Z,7.02
2022-12-26T08:34:16.786Z,6.66
2022-12-26T08:40:04.571Z,6.85
2022-12-26T08:46:05.633Z,6.74
2022-12-26T08:51:53.372Z,6.87
2022-12-26T08:57:44.388Z,7.18
2022-12-26T09:03:32.323Z,7.22
2022-12-26T09:09:19.209Z,7.42
2022-12-26T09:15:06.530Z,7.87
2022-12-26T09:20:53.237Z,7.59
2022-12-26T09:26:40.171Z,7.55
2022-12-26T09:32:26.856Z,7.60
2022-12-26T09:38:14.023Z,7.61
2022-12-26T09:44:10.782Z,8.02
2022-12-26T09:50:12.990Z,8.01
2022-12-26T09:57:01.105Z,8.08
2022-12-26T10:02:26.808Z,8.08
2022-12-26T10:08:29.811Z,8.16
2022-12-26T10:15:31.786Z,8.08
2022-12-26T10:21:20.321Z,8.14
2022-12-26T10:27:28.234Z,8.22
2022-12-26T10:33:32.746Z,8.17
2022-12-26T10:40:03.244Z,8.10
2022-12-26T10:45:58.366Z,8.14
2022-12-26T10:51:45.518Z,8.45
2022-12-26T10:57:41.429Z,8.54
2022-12-26T11:03:32.183Z,8.58
2022-12-26T11:09:22.348Z,8.68
2022-12-26T11:15:37.940Z,8.74
2022-12-26T11:21:40.476Z,8.71
2022-12-26T11:27:30.919Z,8.80
2022-12-26T11:33:48.074Z,8.86
2022-12-26T11:39:37.744Z,9.02
2022-12-26T11:45:30.779Z,9.16
2022-12-26T11:51:39.872Z,9.05
2022-12-26T11:57:32.267Z,8.93
2022-12-26T12:03:31.712Z,9.08
2022-12-26T12:09:27.307Z,9.00
2022-12-26T12:15:23.093Z,9.25
2022-12-26T12:21:34.395Z,9.23
2022-12-26T12:27:56.442Z,9.15
2022-12-26T12:33:55.918Z,9.14
2022-12-26T12:40:04.830Z,8.88
2022-12-26T12:46:12.097Z,8.98
2022-12-26T12:52:16.531Z,9.19
2022-12-26T12:58:24.685Z,8.98
2022-12-26T13:04:20.034Z,8.96
2022-12-26T13:10:17.395Z,9.01
2022-12-26T13:16:16.738Z,9.16
2022-12-26T13:22:10.773Z,9.13
2022-12-26T13:28:09.655Z,9.15
2022-12-26T13:33:56.695Z,9.16
2022-12-26T13:39:43.605Z,9.20
2022-12-26T13:45:42.919Z,9.07
2022-12-26T13:51:45.401Z,9.06
2022-12-26T13:57:42.804Z,8.84
2022-12-26T14:03:43.401Z,8.94
2022-12-26T14:09:52.987Z,9.22
2022-12-26T14:16:08.779Z,9.12
2022-12-26T14:22:21.700Z,8.86
2022-12-26T14:28:27.073Z,8.96
2022-12-26T14:34:50.224Z,8.70
2022-12-26T14:40:38.766Z,8.95
2022-12-26T14:46:35.094Z,8.79
2022-12-26T14:52:24.817Z,8.82
2022-12-26T15:05:00.202Z,8.89
2022-12-26T15:10:53.188Z,8.63
2022-12-26T15:17:16.844Z,8.75
2022-12-26T15:23:24.256Z,8.46
2022-12-26T15:29:35.155Z,8.61
2022-12-26T15:35:33.698Z,8.72
2022-12-26T15:41:44.597Z,8.51
2022-12-26T15:47:55.872Z,8.34
2022-12-26T15:54:07.358Z,8.44
2022-12-26T16:00:10.111Z,8.42
2022-12-26T16:06:16.218Z,8.28
2022-12-26T16:12:21.185Z,8.29
2022-12-26T16:18:27.820Z,8.10
2022-12-26T16:24:24.567Z,7.90
2022-12-26T16:30:21.064Z,7.76
2022-12-26T16:36:15.572Z,7.73
2022-12-26T16:42:08.367Z,7.85
2022-12-26T16:47:55.826Z,7.78
2022-12-26T16:53:44.941Z,7.79
2022-12-26T16:59:50.897Z,7.64
2022-12-26T17:05:39.276Z,7.55
2022-12-26T17:11:33.479Z,7.71
2022-12-26T17:17:23.147Z,7.53
2022-12-26T17:23:34.755Z,7.58
2022-12-26T17:29:58.720Z,7.40
2022-12-26T17:36:44.755Z,7.38
2022-12-26T17:42:00.508Z,7.40
2022-12-26T17:47:47.366Z,7.37
2022-12-26T17:53:50.990Z,7.21
2022-12-26T17:59:37.836Z,7.12
2022-12-26T18:05:24.593Z,7.05
2022-12-26T18:11:15.110Z,6.89
2022-12-26T18:17:02.985Z,6.85
2022-12-26T18:22:54.256Z,6.87
2022-12-26T18:28:44.136Z,6.74
2022-12-26T18:34:30.903Z,6.67
2022-12-26T18:40:38.819Z,6.63
2022-12-26T18:46:27.519Z,6.60
2022-12-26T18:52:17.427Z,6.55
2022-12-26T18:58:05.747Z,6.70
2022-12-26T19:03:53.860Z,6.68
2022-12-26T19:09:49.449Z,6.67
2022-12-26T19:15:36.795Z,6.66
2022-12-26T19:21:24.766Z,6.54
2022-12-26T19:27:11.524Z,6.52
2022-12-26T19:33:00.765Z,6.55
2022-12-26T19:38:48.692Z,6.63
2022-12-26T19:44:35.567Z,6.56
2022-12-26T19:50:23.137Z,6.48
2022-12-26T19:56:16.706Z,6.61
2022-12-26T20:02:04.066Z,6.33
2022-12-26T20:07:51.325Z,6.45
2022-12-26T20:13:38.566Z,6.66
2022-12-26T20:19:27.994Z,6.54
2022-12-26T20:25:14.707Z,6.65
2022-12-26T20:31:09.042Z,6.77
2022-12-26T20:36:59.422Z,6.73
2022-12-26T20:42:47.417Z,6.69
2022-12-26T20:48:34.271Z,6.81
2022-12-26T20:54:23.103Z,6.76
2022-12-26T21:00:10.650Z,6.68
2022-12-26T21:06:11.187Z,6.58
2022-12-26T21:11:57.899Z,6.57
2022-12-26T21:17:44.630Z,6.49
2022-12-26T21:23:31.259Z,6.39
2022-12-26T21:29:20.050Z,6.57
2022-12-26T21:35:08.323Z,6.38
2022-12-26T21:40:55.513Z,6.39
2022-12-26T21:46:42.341Z,6.43
2022-12-26T21:52:31.443Z,6.22
2022-12-26T21:58:19.187Z,6.19
2022-12-26T22:04:21.022Z,6.28
2022-12-26T22:10:10.172Z,6.19
2022-12-26T22:16:09.050Z,6.15
2022-12-26T22:22:02.663Z,6.18
2022-12-26T22:27:51.197Z,6.22
2022-12-26T22:33:41.923Z,6.22
2022-12-26T22:39:35.070Z,6.23
2022-12-26T22:45:26.944Z,6.47
2022-12-26T22:51:22.899Z,6.28
2022-12-26T22:57:10.118Z,6.13
2022-12-26T23:02:56.860Z,6.13
2022-12-26T23:08:44.565Z,6.11
2022-12-26T23:14:33.103Z,6.00
2022-12-26T23:20:42.800Z,6.15
2022-12-26T23:26:31.116Z,6.27
2022-12-26T23:32:17.848Z,6.21
2022-12-26T23:38:04.437Z,6.21
2022-12-26T23:43:51.026Z,6.17
2022-12-26T23:49:37.727Z,6.13
2022-12-26T23:55:24.204Z,6.02
